Time;durP1;ratioP1;P1;durP2;ratioP2;P2;SDS_P1;SDS_P2;PMS_P1;PMS_P2;Temp;Humidity;BMP_temperature;BMP_pressure;BME280_temperature;BME280_humidity;BME280_pressure;Samples;Min_cycle;Max_cycle;Signal;HPM_P1;HPM_P2
2023/06/30 00:02:00;;;;;;;;;3.00;3.00;;;;;;;;5078322;27;45311;-82
2023/06/30 00:04:30;;;;;;;;;4.25;3.00;;;;;;;;5077760;28;45349;-82
2023/06/30 00:06:56;;;;;;;;;3.25;3.00;;;;;;;;5078163;27;45628;-82
2023/06/30 00:09:22;;;;;;;;;7.25;4.00;;;;;;;;5078671;27;45402;-83
2023/06/30 00:11:52;;;;;;;;;3.00;2.75;;;;;;;;5078524;27;45396;-82
2023/06/30 00:14:17;;;;;;;;;6.75;3.00;;;;;;;;5077605;27;46231;-82
2023/06/30 00:16:43;;;;;;;;;2.25;2.00;;;;;;;;5078245;28;45401;-82
2023/06/30 00:19:08;;;;;;;;;4.00;2.75;;;;;;;;5078043;27;45443;-82
2023/06/30 00:21:34;;;;;;;;;2.00;2.00;;;;;;;;5078347;28;45350;-82
2023/06/30 00:24:01;;;;;;;;;5.00;2.00;;;;;;;;5077555;28;46427;-82
2023/06/30 00:26:27;;;;;;;;;6.25;5.00;;;;;;;;5077872;27;45885;-82
2023/06/30 00:28:52;;;;;;;;;5.75;2.00;;;;;;;;5078212;27;45466;-82
2023/06/30 00:31:18;;;;;;;;;8.67;5.33;;;;;;;;5078034;27;45431;-82
2023/06/30 00:33:43;;;;;;;;;4.67;2.33;;;;;;;;5077187;27;46870;-82
2023/06/30 00:36:08;;;;;;;;;3.00;3.00;;;;;;;;5077881;28;45378;-83
2023/06/30 00:38:33;;;;;;;;;9.33;5.67;;;;;;;;5077972;28;45296;-82
2023/06/30 00:40:59;;;;;;;;;8.00;4.50;;;;;;;;5078006;27;45300;-83
2023/06/30 00:43:24;;;;;;;;;4.50;3.50;;;;;;;;5076597;28;46261;-81
2023/06/30 00:45:50;;;;;;;;;3.25;1.00;;;;;;;;5077472;27;45306;-82
2023/06/30 00:48:17;;;;;;;;;2.00;1.00;;;;;;;;5077526;27;45335;-83
2023/06/30 00:50:42;;;;;;;;;3.00;2.00;;;;;;;;5077639;27;45237;-82
2023/06/30 00:53:08;;;;;;;;;2.00;2.00;;;;;;;;5077355;27;46376;-82
2023/06/30 00:55:33;;;;;;;;;1.50;1.00;;;;;;;;5076987;27;45445;-82
2023/06/30 00:57:58;;;;;;;;;1.00;1.00;;;;;;;;5077449;28;45340;-82
2023/06/30 01:00:24;;;;;;;;;3.67;3.67;;;;;;;;5077736;28;45245;-84
2023/06/30 01:02:54;;;;;;;;;4.33;4.00;;;;;;;;5075180;28;48093;-82
2023/06/30 01:05:25;;;;;;;;;6.50;3.50;;;;;;;;5075503;28;46238;-83
2023/06/30 01:07:58;;;;;;;;;5.75;2.50;;;;;;;;5077639;27;45453;-82
2023/06/30 01:10:25;;;;;;;;;2.00;2.00;;;;;;;;5077261;27;45472;-83
2023/06/30 01:12:50;;;;;;;;;2.00;2.00;;;;;;;;5077094;27;46496;-83
2023/06/30 01:15:16;;;;;;;;;1.25;1.00;;;;;;;;5076486;27;45498;-83
2023/06/30 01:17:46;;;;;;;;;1.00;1.00;;;;;;;;5077172;28;45422;-83
2023/06/30 01:20:12;;;;;;;;;0.00;0.00;;;;;;;;5076583;28;45407;-83
2023/06/30 01:22:44;;;;;;;;;2.00;1.00;;;;;;;;5077020;27;45496;-83
2023/06/30 01:25:14;;;;;;;;;0.75;0.50;;;;;;;;5076676;28;45276;-83
2023/06/30 01:27:39;;;;;;;;;1.50;1.50;;;;;;;;5077250;27;45358;-83
2023/06/30 01:30:05;;;;;;;;;4.50;1.00;;;;;;;;5077056;27;45405;-83
2023/06/30 01:32:31;;;;;;;;;3.25;2.00;;;;;;;;5076243;27;46637;-82
2023/06/30 01:34:56;;;;;;;;;3.75;2.50;;;;;;;;5076359;28;45522;-82
2023/06/30 01:37:21;;;;;;;;;4.33;3.00;;;;;;;;5077062;27;45347;-82
2023/06/30 01:39:46;;;;;;;;;6.00;4.00;;;;;;;;5076817;27;45428;-82
2023/06/30 01:42:12;;;;;;;;;4.00;3.33;;;;;;;;5076710;27;46453;-82
2023/06/30 01:44:39;;;;;;;;;5.00;4.00;;;;;;;;5076154;28;45952;-82
2023/06/30 01:47:05;;;;;;;;;4.50;4.50;;;;;;;;5076514;28;45309;-83
2023/06/30 01:49:32;;;;;;;;;7.00;4.00;;;;;;;;5076746;28;45264;-82
2023/06/30 01:51:57;;;;;;;;;3.25;3.25;;;;;;;;5076596;28;47046;-83
2023/06/30 01:54:22;;;;;;;;;6.67;4.33;;;;;;;;5076254;28;45318;-82
2023/06/30 01:56:48;;;;;;;;;4.75;4.50;;;;;;;;5076186;27;45422;-82
2023/06/30 01:59:14;;;;;;;;;4.25;3.75;;;;;;;;5076535;27;45521;-83
2023/06/30 02:01:39;;;;;;;;;4.00;3.00;;;;;;;;5074954;28;47173;-82
2023/06/30 02:04:07;;;;;;;;;6.00;4.67;;;;;;;;5076176;27;45511;-82
2023/06/30 02:06:33;;;;;;;;;3.75;3.00;;;;;;;;5076627;28;45492;-82
2023/06/30 02:08:58;;;;;;;;;3.25;3.00;;;;;;;;5076540;28;45552;-82
2023/06/30 02:11:23;;;;;;;;;3.00;3.00;;;;;;;;5076204;28;45365;-82
2023/06/30 02:13:48;;;;;;;;;6.67;3.33;;;;;;;;5075843;28;45403;-82
2023/06/30 02:16:14;;;;;;;;;5.00;5.00;;;;;;;;5076106;27;45335;-82
2023/06/30 02:18:39;;;;;;;;;2.00;2.00;;;;;;;;5076394;28;45517;-82
2023/06/30 02:21:05;;;;;;;;;2.75;2.00;;;;;;;;5074937;28;47977;-82
2023/06/30 02:23:30;;;;;;;;;7.00;4.00;;;;;;;;5075698;27;45391;-82
2023/06/30 02:25:55;;;;;;;;;5.75;3.25;;;;;;;;5076263;28;45254;-82
2023/06/30 02:28:20;;;;;;;;;3.00;2.33;;;;;;;;5076374;28;45521;-82
2023/06/30 02:30:45;;;;;;;;;7.00;3.00;;;;;;;;5074473;28;46470;-82
2023/06/30 02:33:11;;;;;;;;;8.33;3.00;;;;;;;;5075641;28;45370;-82
2023/06/30 02:35:36;;;;;;;;;6.67;4.00;;;;;;;;5076371;27;45208;-82
2023/06/30 02:38:03;;;;;;;;;5.00;3.00;;;;;;;;5076023;27;45532;-82
2023/06/30 02:40:29;;;;;;;;;2.00;2.00;;;;;;;;5075876;27;46531;-82
2023/06/30 02:42:55;;;;;;;;;1.50;1.50;;;;;;;;5075903;27;45398;-82
2023/06/30 02:45:20;;;;;;;;;4.00;3.00;;;;;;;;5075408;27;45409;-82
2023/06/30 02:47:49;;;;;;;;;3.00;2.25;;;;;;;;5075959;27;45539;-82
2023/06/30 02:50:14;;;;;;;;;3.25;3.00;;;;;;;;5075324;28;46219;-82
2023/06/30 02:52:40;;;;;;;;;5.25;2.25;;;;;;;;5075834;28;45463;-82
2023/06/30 02:55:05;;;;;;;;;3.00;2.00;;;;;;;;5076092;28;45323;-82
2023/06/30 02:57:30;;;;;;;;;4.75;2.00;;;;;;;;5075614;27;46005;-82
2023/06/30 02:59:56;;;;;;;;;3.00;3.00;;;;;;;;5075118;28;46188;-82
2023/06/30 03:02:21;;;;;;;;;2.00;2.00;;;;;;;;5075671;27;45786;-83
2023/06/30 03:04:47;;;;;;;;;3.00;2.00;;;;;;;;5074497;28;45651;-83
2023/06/30 03:07:12;;;;;;;;;2.00;2.00;;;;;;;;5075859;27;45526;-83
2023/06/30 03:09:37;;;;;;;;;4.00;2.50;;;;;;;;5075184;27;45433;-82
2023/06/30 03:12:03;;;;;;;;;3.00;2.75;;;;;;;;5075473;27;45464;-82
2023/06/30 03:14:28;;;;;;;;;2.25;2.25;;;;;;;;5075115;27;45389;-82
2023/06/30 03:16:53;;;;;;;;;3.25;2.00;;;;;;;;5075313;27;45565;-82
2023/06/30 03:19:18;;;;;;;;;1.00;1.00;;;;;;;;5075442;28;47275;-82
2023/06/30 03:21:44;;;;;;;;;3.00;3.00;;;;;;;;5075667;28;45528;-82
2023/06/30 03:24:09;;;;;;;;;3.00;2.67;;;;;;;;5073889;28;45437;-82
2023/06/30 03:26:34;;;;;;;;;3.75;2.25;;;;;;;;5075447;27;45291;-82
2023/06/30 03:29:00;;;;;;;;;5.00;2.00;;;;;;;;5074942;27;45462;-82
2023/06/30 03:31:25;;;;;;;;;2.00;2.00;;;;;;;;5075405;27;45443;-82
2023/06/30 03:33:50;;;;;;;;;2.50;1.00;;;;;;;;5073892;28;45449;-82
2023/06/30 03:36:16;;;;;;;;;7.00;2.00;;;;;;;;5075444;28;45356;-83
2023/06/30 03:38:41;;;;;;;;;1.00;1.00;;;;;;;;5075078;28;46145;-83
2023/06/30 03:41:06;;;;;;;;;3.00;2.00;;;;;;;;5075229;27;45880;-82
2023/06/30 03:43:32;;;;;;;;;5.00;2.00;;;;;;;;5077700;28;45456;-83
2023/06/30 03:45:58;;;;;;;;;2.00;2.00;;;;;;;;5078563;27;45481;-82
2023/06/30 03:48:24;;;;;;;;;3.00;2.00;;;;;;;;5078712;27;45336;-83
2023/06/30 03:50:52;;;;;;;;;2.50;2.50;;;;;;;;5078442;27;45367;-82
2023/06/30 03:53:17;;;;;;;;;2.00;2.00;;;;;;;;5078745;27;45390;-82
2023/06/30 03:55:42;;;;;;;;;1.67;1.33;;;;;;;;5078319;27;45277;-83
2023/06/30 03:58:07;;;;;;;;;1.00;1.00;;;;;;;;5076550;28;47362;-83
2023/06/30 04:00:33;;;;;;;;;2.67;2.00;;;;;;;;5078360;28;45470;-83
2023/06/30 04:02:58;;;;;;;;;4.50;2.75;;;;;;;;5078176;28;45480;-82
2023/06/30 04:05:24;;;;;;;;;3.00;2.33;;;;;;;;5078090;28;45462;-82
2023/06/30 04:07:49;;;;;;;;;2.67;2.00;;;;;;;;5078233;27;46724;-81
2023/06/30 04:10:14;;;;;;;;;4.67;3.00;;;;;;;;5078000;27;45311;-82
2023/06/30 04:12:39;;;;;;;;;2.33;2.33;;;;;;;;5078019;28;45325;-82
2023/06/30 04:15:07;;;;;;;;;4.00;2.00;;;;;;;;5077852;28;45344;-82
2023/06/30 04:17:33;;;;;;;;;3.25;2.75;;;;;;;;5078140;27;46679;-82
2023/06/30 04:19:58;;;;;;;;;3.33;3.00;;;;;;;;5078169;28;45354;-82
2023/06/30 04:22:23;;;;;;;;;3.67;2.00;;;;;;;;5078263;28;45534;-82
2023/06/30 04:24:48;;;;;;;;;3.00;3.00;;;;;;;;5077863;28;45415;-82
2023/06/30 04:27:13;;;;;;;;;5.00;3.00;;;;;;;;5077472;27;46415;-82
2023/06/30 04:29:39;;;;;;;;;4.00;4.00;;;;;;;;5078053;27;45275;-82
2023/06/30 04:32:05;;;;;;;;;5.50;3.50;;;;;;;;5078288;27;45645;-82
2023/06/30 04:34:30;;;;;;;;;5.25;4.25;;;;;;;;5077774;27;45421;-83
2023/06/30 04:36:55;;;;;;;;;5.00;5.00;;;;;;;;5077942;28;46384;-82
2023/06/30 04:39:20;;;;;;;;;6.00;4.33;;;;;;;;5077833;28;45488;-82
2023/06/30 04:41:45;;;;;;;;;5.67;3.00;;;;;;;;5077653;28;45488;-83
2023/06/30 04:44:11;;;;;;;;;4.33;3.00;;;;;;;;5077391;28;45328;-82
2023/06/30 04:46:36;;;;;;;;;4.00;4.00;;;;;;;;5077835;28;46051;-82
2023/06/30 04:49:04;;;;;;;;;4.67;0.00;;;;;;;;5077820;27;45331;-83
2023/06/30 04:51:29;;;;;;;;;4.50;2.75;;;;;;;;5077857;27;45442;-82
2023/06/30 04:53:54;;;;;;;;;5.00;1.00;;;;;;;;5076535;27;45400;-82
2023/06/30 04:56:19;;;;;;;;;3.00;3.00;;;;;;;;5077111;28;45660;-83
2023/06/30 04:58:45;;;;;;;;;4.67;3.00;;;;;;;;5077642;28;45453;-83
2023/06/30 05:01:10;;;;;;;;;1.33;1.00;;;;;;;;5077624;27;45345;-83
2023/06/30 05:03:36;;;;;;;;;3.00;1.00;;;;;;;;5077284;28;45473;-82
2023/06/30 05:06:01;;;;;;;;;1.75;1.00;;;;;;;;5077435;27;46891;-82
2023/06/30 05:08:26;;;;;;;;;1.67;1.00;;;;;;;;5077618;27;45329;-82
2023/06/30 05:10:52;;;;;;;;;2.00;1.00;;;;;;;;5077242;27;45545;-81
2023/06/30 05:13:18;;;;;;;;;1.00;1.00;;;;;;;;5077091;27;45525;-82
2023/06/30 05:15:44;;;;;;;;;2.00;1.00;;;;;;;;5076699;28;45324;-83
2023/06/30 05:18:09;;;;;;;;;3.00;1.00;;;;;;;;5077326;27;45506;-82
2023/06/30 05:20:36;;;;;;;;;2.00;1.00;;;;;;;;5077337;28;45382;-82
2023/06/30 05:23:01;;;;;;;;;2.25;1.00;;;;;;;;5077046;27;45362;-81
2023/06/30 05:25:26;;;;;;;;;2.00;2.00;;;;;;;;5076803;28;47462;-82
2023/06/30 05:27:51;;;;;;;;;3.00;2.00;;;;;;;;5076952;28;45247;-82
2023/06/30 05:30:17;;;;;;;;;2.00;1.00;;;;;;;;5077502;28;45423;-82
2023/06/30 05:32:42;;;;;;;;;2.75;2.75;;;;;;;;5077222;27;45235;-82
2023/06/30 05:35:08;;;;;;;;;3.00;3.00;;;;;;;;5076659;28;46295;-82
2023/06/30 05:37:33;;;;;;;;;1.00;1.00;;;;;;;;5076720;27;45456;-82
2023/06/30 05:39:58;;;;;;;;;2.00;0.00;;;;;;;;5076886;27;45384;-82
2023/06/30 05:42:24;;;;;;;;;2.00;2.00;;;;;;;;5077207;27;45370;-82
2023/06/30 05:44:50;;;;;;;;;4.00;2.00;;;;;;;;5076414;27;46042;-82
2023/06/30 05:47:16;;;;;;;;;3.75;1.75;;;;;;;;5076921;28;45318;-82
2023/06/30 05:49:41;;;;;;;;;3.00;1.67;;;;;;;;5077132;27;45339;-82
2023/06/30 05:52:07;;;;;;;;;0.00;0.00;;;;;;;;5076537;27;45448;-82
2023/06/30 05:54:32;;;;;;;;;2.00;1.00;;;;;;;;5076389;27;47386;-83
2023/06/30 05:56:57;;;;;;;;;0.33;0.33;;;;;;;;5076339;27;45786;-82
2023/06/30 05:59:22;;;;;;;;;1.67;1.00;;;;;;;;5076838;27;45331;-83
2023/06/30 06:01:48;;;;;;;;;1.00;1.00;;;;;;;;5075139;27;45474;-82
2023/06/30 06:04:13;;;;;;;;;1.00;0.00;;;;;;;;5074986;27;45872;-82
2023/06/30 06:06:41;;;;;;;;;1.67;1.67;;;;;;;;5074203;27;45500;-81
2023/06/30 06:09:06;;;;;;;;;4.00;1.00;;;;;;;;5075904;27;45439;-81
2023/06/30 06:11:32;;;;;;;;;2.67;1.00;;;;;;;;5076160;27;45470;-81
2023/06/30 06:13:57;;;;;;;;;1.67;1.67;;;;;;;;5074368;28;47117;-81
2023/06/30 06:16:22;;;;;;;;;2.00;2.00;;;;;;;;5075039;28;45288;-82
2023/06/30 06:18:48;;;;;;;;;1.25;1.00;;;;;;;;5075438;27;45804;-78
2023/06/30 06:21:14;;;;;;;;;2.00;2.00;;;;;;;;5076082;28;45405;-80
2023/06/30 06:23:39;;;;;;;;;3.00;1.00;;;;;;;;5074625;28;46994;-82
2023/06/30 06:26:04;;;;;;;;;3.00;1.67;;;;;;;;5075711;28;45336;-79
2023/06/30 06:28:29;;;;;;;;;1.00;1.00;;;;;;;;5075562;28;45280;-81
2023/06/30 06:30:55;;;;;;;;;2.00;1.00;;;;;;;;5076426;27;45347;-83
2023/06/30 06:33:23;;;;;;;;;2.00;2.00;;;;;;;;5075868;27;47420;-82
2023/06/30 06:35:51;;;;;;;;;3.00;2.00;;;;;;;;5075833;28;45797;-83
2023/06/30 06:38:17;;;;;;;;;3.00;2.00;;;;;;;;5076287;28;45346;-83
2023/06/30 06:40:43;;;;;;;;;5.75;2.00;;;;;;;;5075018;28;45472;-82
2023/06/30 06:43:09;;;;;;;;;6.00;3.00;;;;;;;;5075726;27;47195;-82
2023/06/30 06:45:34;;;;;;;;;2.00;2.00;;;;;;;;5075796;28;45316;-82
2023/06/30 06:48:21;;;;;;;;;3.67;3.67;;;;;;;;5075699;27;45465;-80
2023/06/30 06:50:47;;;;;;;;;3.50;3.50;;;;;;;;5066008;28;45376;-81
2023/06/30 06:53:17;;;;;;;;;5.00;2.50;;;;;;;;5075568;28;45900;-82
2023/06/30 06:55:42;;;;;;;;;5.75;3.50;;;;;;;;5076746;27;45833;-82
2023/06/30 06:58:07;;;;;;;;;3.67;2.67;;;;;;;;5094430;27;45419;-80
2023/06/30 07:00:33;;;;;;;;;4.00;2.33;;;;;;;;5076490;27;45410;-80
2023/06/30 07:02:58;;;;;;;;;6.00;3.00;;;;;;;;5075972;27;47169;-81
2023/06/30 07:05:23;;;;;;;;;4.00;4.00;;;;;;;;5079745;27;45437;-85
2023/06/30 07:07:48;;;;;;;;;6.33;4.00;;;;;;;;5076920;27;45502;-86
2023/06/30 07:10:13;;;;;;;;;4.67;3.00;;;;;;;;5075488;28;45544;-86
2023/06/30 07:12:39;;;;;;;;;4.75;4.00;;;;;;;;5075812;27;46117;-83
2023/06/30 07:15:05;;;;;;;;;5.67;3.67;;;;;;;;5082927;27;45651;-82
2023/06/30 07:17:30;;;;;;;;;4.50;4.00;;;;;;;;5077589;28;45259;-83
2023/06/30 07:19:55;;;;;;;;;5.50;4.25;;;;;;;;5079596;27;45534;-86
2023/06/30 07:22:21;;;;;;;;;4.00;4.00;;;;;;;;5081552;27;46414;-82
2023/06/30 07:24:46;;;;;;;;;4.00;4.00;;;;;;;;5088755;27;45564;-80
2023/06/30 07:27:11;;;;;;;;;5.00;5.00;;;;;;;;5079133;28;45387;-85
2023/06/30 07:29:37;;;;;;;;;4.00;2.67;;;;;;;;5080609;27;45635;-85
2023/06/30 07:32:02;;;;;;;;;5.33;4.00;;;;;;;;5078562;28;46181;-89
2023/06/30 07:34:29;;;;;;;;;10.50;5.25;;;;;;;;5078517;27;45308;-84
2023/06/30 07:36:54;;;;;;;;;4.00;4.00;;;;;;;;5077953;28;45485;-82
2023/06/30 07:39:19;;;;;;;;;6.67;4.00;;;;;;;;5080010;27;45450;-83
2023/06/30 07:41:44;;;;;;;;;4.00;4.00;;;;;;;;5074747;27;45583;-84
2023/06/30 07:44:11;;;;;;;;;8.33;4.67;;;;;;;;5075308;27;46453;-83
2023/06/30 07:46:37;;;;;;;;;3.50;2.00;;;;;;;;5078624;27;45701;-83
2023/06/30 07:49:02;;;;;;;;;3.75;3.75;;;;;;;;5089329;27;45337;-83
2023/06/30 07:51:29;;;;;;;;;5.33;4.67;;;;;;;;5079550;27;46108;-82
2023/06/30 07:53:54;;;;;;;;;6.50;4.00;;;;;;;;5080491;27;45415;-83
2023/06/30 07:56:19;;;;;;;;;3.33;3.33;;;;;;;;5076965;27;45442;-83
2023/06/30 07:58:44;;;;;;;;;5.67;4.67;;;;;;;;5057874;28;45392;-86
2023/06/30 08:01:09;;;;;;;;;6.33;3.67;;;;;;;;5057751;28;45400;-84
2023/06/30 08:03:35;;;;;;;;;4.33;4.00;;;;;;;;5056821;28;45467;-92
2023/06/30 08:06:00;;;;;;;;;6.33;3.67;;;;;;;;5057934;28;45368;-87
2023/06/30 08:08:25;;;;;;;;;3.67;3.33;;;;;;;;5058223;28;45343;-87
2023/06/30 08:10:50;;;;;;;;;4.00;3.00;;;;;;;;5057831;28;46458;-87
2023/06/30 08:13:15;;;;;;;;;5.00;2.00;;;;;;;;5058073;28;45413;-88
2023/06/30 08:15:41;;;;;;;;;3.00;3.00;;;;;;;;5058094;28;45312;-88
2023/06/30 08:18:06;;;;;;;;;2.00;2.00;;;;;;;;5057742;28;45535;-87
2023/06/30 08:20:31;;;;;;;;;4.00;3.00;;;;;;;;5058018;28;46436;-87
2023/06/30 08:22:57;;;;;;;;;4.00;4.00;;;;;;;;5057591;28;45574;-87
2023/06/30 08:25:23;;;;;;;;;4.00;0.67;;;;;;;;5058033;28;45328;-87
2023/06/30 08:27:48;;;;;;;;;1.75;1.75;;;;;;;;5057843;28;45410;-87
2023/06/30 08:30:13;;;;;;;;;1.00;1.00;;;;;;;;5039733;28;47245;-87
2023/06/30 08:32:38;;;;;;;;;1.00;1.00;;;;;;;;5057333;28;45300;-87
2023/06/30 08:35:04;;;;;;;;;2.00;2.00;;;;;;;;5058067;28;45371;-87
2023/06/30 08:37:29;;;;;;;;;1.75;1.00;;;;;;;;5057692;28;45210;-87
2023/06/30 08:39:54;;;;;;;;;2.00;2.00;;;;;;;;5039505;28;48295;-88
2023/06/30 08:42:22;;;;;;;;;1.00;1.00;;;;;;;;5057659;28;45342;-87
2023/06/30 08:44:49;;;;;;;;;1.00;1.00;;;;;;;;5039516;28;45355;-87
2023/06/30 08:47:15;;;;;;;;;1.00;1.00;;;;;;;;5057295;28;45510;-87
2023/06/30 08:49:41;;;;;;;;;1.00;1.00;;;;;;;;5057555;28;46185;-87
2023/06/30 08:52:07;;;;;;;;;1.00;1.00;;;;;;;;5057385;28;45685;-87
2023/06/30 08:54:32;;;;;;;;;1.00;1.00;;;;;;;;5057662;28;45403;-87
2023/06/30 08:57:00;;;;;;;;;1.25;1.00;;;;;;;;5069232;27;45315;-87
2023/06/30 08:59:26;;;;;;;;;1.50;0.25;;;;;;;;5077637;27;46437;-88
2023/06/30 09:01:51;;;;;;;;;6.00;0.67;;;;;;;;5077537;27;45438;-87
2023/06/30 09:04:17;;;;;;;;;2.00;1.75;;;;;;;;5077554;27;45370;-86
2023/06/30 09:06:45;;;;;;;;;2.50;1.50;;;;;;;;5077576;27;45450;-87
2023/06/30 09:09:13;;;;;;;;;2.00;1.00;;;;;;;;5077400;27;47362;-87
2023/06/30 09:11:39;;;;;;;;;2.00;2.00;;;;;;;;5077536;27;46210;-87
2023/06/30 09:14:06;;;;;;;;;2.00;1.00;;;;;;;;5077368;27;45669;-87
2023/06/30 09:16:31;;;;;;;;;1.75;0.25;;;;;;;;5077059;27;45363;-87
2023/06/30 09:18:56;;;;;;;;;3.00;1.00;;;;;;;;5077379;27;47256;-87
2023/06/30 09:21:22;;;;;;;;;1.00;1.00;;;;;;;;5077325;27;45343;-87
2023/06/30 09:23:47;;;;;;;;;3.00;1.00;;;;;;;;5077321;27;45354;-87
2023/06/30 09:26:16;;;;;;;;;2.50;1.00;;;;;;;;5077408;27;45373;-87
2023/06/30 09:28:44;;;;;;;;;1.00;1.00;;;;;;;;5077120;27;47175;-87
2023/06/30 09:31:09;;;;;;;;;2.00;2.00;;;;;;;;5077014;27;45656;-87
2023/06/30 09:33:35;;;;;;;;;2.25;1.50;;;;;;;;5077175;27;45213;-87
2023/06/30 09:36:02;;;;;;;;;4.00;1.50;;;;;;;;5077255;27;45257;-87
2023/06/30 09:38:29;;;;;;;;;2.50;1.25;;;;;;;;5077046;27;47163;-87
2023/06/30 09:40:54;;;;;;;;;0.75;0.50;;;;;;;;5076483;27;45363;-87
2023/06/30 09:43:21;;;;;;;;;3.75;0.75;;;;;;;;5076991;27;45326;-87
2023/06/30 09:45:47;;;;;;;;;1.25;0.75;;;;;;;;5076653;27;45481;-87
2023/06/30 09:48:13;;;;;;;;;2.50;2.50;;;;;;;;5076844;27;45638;-87
2023/06/30 09:50:38;;;;;;;;;1.00;1.00;;;;;;;;5076931;27;45386;-87
2023/06/30 09:53:03;;;;;;;;;0.67;0.67;;;;;;;;5077141;27;45378;-87
2023/06/30 09:55:28;;;;;;;;;0.00;0.00;;;;;;;;5076931;27;45367;-87
2023/06/30 09:57:56;;;;;;;;;0.50;0.50;;;;;;;;5076602;27;46516;-86
2023/06/30 10:00:23;;;;;;;;;2.75;1.75;;;;;;;;5076451;27;45942;-87
2023/06/30 10:03:04;;;;;;;;;1.00;1.00;;;;;;;;5076792;27;45413;-87
2023/06/30 10:05:29;;;;;;;;;2.00;0.00;;;;;;;;5076727;27;45351;-87
2023/06/30 10:07:55;;;;;;;;;0.00;0.00;;;;;;;;5076603;27;46511;-87
2023/06/30 10:10:20;;;;;;;;;3.00;1.00;;;;;;;;5076560;27;45362;-87
2023/06/30 10:12:49;;;;;;;;;2.50;1.00;;;;;;;;5075440;28;45421;-87
2023/06/30 10:15:14;;;;;;;;;1.00;1.00;;;;;;;;5076071;28;45623;-87
2023/06/30 10:17:43;;;;;;;;;2.00;1.00;;;;;;;;5076319;27;45665;-87
2023/06/30 10:20:08;;;;;;;;;1.50;0.75;;;;;;;;5076424;27;45256;-87
2023/06/30 10:22:34;;;;;;;;;2.00;1.00;;;;;;;;5076578;27;45362;-87
2023/06/30 10:24:59;;;;;;;;;0.25;0.25;;;;;;;;5076660;27;45506;-87
2023/06/30 10:27:25;;;;;;;;;0.25;0.25;;;;;;;;5076296;27;46182;-87
2023/06/30 10:29:51;;;;;;;;;2.75;1.00;;;;;;;;5075923;27;45369;-87
2023/06/30 10:32:20;;;;;;;;;2.00;0.00;;;;;;;;5075207;28;45495;-87
2023/06/30 10:34:45;;;;;;;;;1.00;0.50;;;;;;;;5076386;28;45413;-87
2023/06/30 10:37:11;;;;;;;;;1.50;1.50;;;;;;;;5076218;27;45938;-87
2023/06/30 10:39:36;;;;;;;;;0.75;0.50;;;;;;;;5076192;27;45358;-87
2023/06/30 10:42:04;;;;;;;;;1.00;1.00;;;;;;;;5076228;27;45307;-87
2023/06/30 10:44:37;;;;;;;;;0.25;0.25;;;;;;;;5075803;27;45334;-87
2023/06/30 10:47:03;;;;;;;;;1.00;0.75;;;;;;;;5076002;27;47303;-87
2023/06/30 10:49:35;;;;;;;;;2.00;0.00;;;;;;;;5074833;28;45341;-87
2023/06/30 10:52:01;;;;;;;;;2.25;1.00;;;;;;;;5075807;28;45425;-87
2023/06/30 10:54:28;;;;;;;;;2.00;1.00;;;;;;;;5079886;27;45382;-87
2023/06/30 10:57:08;;;;;;;;;0.25;0.00;;;;;;;;5079079;27;45530;-87
2023/06/30 10:59:38;;;;;;;;;1.00;1.00;;;;;;;;5079796;27;45456;-87
2023/06/30 11:02:12;;;;;;;;;1.00;1.00;;;;;;;;5079662;27;45558;-87
2023/06/30 11:04:40;;;;;;;;;2.00;1.00;;;;;;;;5078117;28;45471;-90
2023/06/30 11:07:07;;;;;;;;;0.50;0.50;;;;;;;;5078314;28;47709;-87
2023/06/30 11:09:47;;;;;;;;;2.00;1.00;;;;;;;;5079351;27;45384;-87
2023/06/30 11:12:19;;;;;;;;;2.75;0.25;;;;;;;;5079269;28;45472;-87
2023/06/30 11:14:58;;;;;;;;;0.75;0.50;;;;;;;;5079356;27;45341;-86
2023/06/30 11:17:24;;;;;;;;;1.00;1.00;;;;;;;;5079114;27;46715;-87
2023/06/30 11:20:09;;;;;;;;;0.75;0.75;;;;;;;;5079347;27;45555;-87
2023/06/30 11:22:34;;;;;;;;;2.25;0.50;;;;;;;;5078116;28;45304;-87
2023/06/30 11:25:04;;;;;;;;;1.25;1.00;;;;;;;;5079324;27;45460;-88
2023/06/30 11:27:30;;;;;;;;;2.00;0.75;;;;;;;;5078976;27;45603;-87
2023/06/30 11:29:56;;;;;;;;;1.00;1.00;;;;;;;;5079037;27;45343;-87
2023/06/30 11:32:26;;;;;;;;;1.25;0.00;;;;;;;;5079285;27;45318;-87
2023/06/30 11:34:51;;;;;;;;;0.75;0.25;;;;;;;;5077844;28;45434;-87
2023/06/30 11:37:17;;;;;;;;;0.00;0.00;;;;;;;;5079041;27;45397;-87
2023/06/30 11:39:49;;;;;;;;;2.25;0.00;;;;;;;;5079080;28;45430;-87
2023/06/30 11:42:14;;;;;;;;;1.00;0.00;;;;;;;;5078778;27;45390;-88
2023/06/30 11:44:39;;;;;;;;;0.00;0.00;;;;;;;;5078952;27;45370;-89
2023/06/30 11:47:05;;;;;;;;;0.00;0.00;;;;;;;;5078821;27;46172;-88
2023/06/30 11:49:34;;;;;;;;;2.00;1.25;;;;;;;;5078858;27;45213;-87
2023/06/30 11:52:00;;;;;;;;;1.50;1.00;;;;;;;;5079018;27;45279;-87
2023/06/30 11:54:29;;;;;;;;;0.00;0.00;;;;;;;;5078781;27;45313;-87
2023/06/30 11:56:56;;;;;;;;;2.25;1.00;;;;;;;;5078196;27;46593;-87
2023/06/30 11:59:21;;;;;;;;;0.00;0.00;;;;;;;;5078665;27;45654;-87
2023/06/30 12:01:47;;;;;;;;;0.00;0.00;;;;;;;;5078945;27;45303;-87
2023/06/30 12:04:12;;;;;;;;;0.00;0.00;;;;;;;;5078087;27;45414;-87
2023/06/30 12:06:37;;;;;;;;;0.00;0.00;;;;;;;;5078427;27;45617;-86
2023/06/30 12:09:02;;;;;;;;;0.00;0.00;;;;;;;;5078627;27;45370;-87
2023/06/30 12:11:30;;;;;;;;;0.00;0.00;;;;;;;;5078297;27;45360;-87
2023/06/30 12:13:55;;;;;;;;;0.00;0.00;;;;;;;;5078362;27;45300;-87
2023/06/30 12:16:25;;;;;;;;;0.00;0.00;;;;;;;;5077093;28;47242;-87
2023/06/30 12:18:50;;;;;;;;;0.00;0.00;;;;;;;;5077128;28;45669;-87
2023/06/30 12:21:15;;;;;;;;;0.00;0.00;;;;;;;;5078400;27;45353;-87
2023/06/30 12:23:44;;;;;;;;;0.00;0.00;;;;;;;;5077152;28;45402;-88
2023/06/30 12:26:12;;;;;;;;;0.50;0.00;;;;;;;;5077657;27;45434;-87
2023/06/30 12:28:41;;;;;;;;;1.00;0.00;;;;;;;;5076967;28;45415;-87
2023/06/30 12:31:08;;;;;;;;;0.00;0.00;;;;;;;;5078496;27;45343;-89
2023/06/30 12:33:34;;;;;;;;;0.75;0.00;;;;;;;;5078371;27;45384;-87
2023/06/30 12:36:03;;;;;;;;;0.00;0.00;;;;;;;;5078063;27;45449;-87
2023/06/30 12:38:28;;;;;;;;;0.00;0.00;;;;;;;;5077644;28;45660;-87
2023/06/30 12:40:54;;;;;;;;;1.00;0.00;;;;;;;;5078207;27;45311;-87
2023/06/30 12:43:19;;;;;;;;;0.00;0.00;;;;;;;;5077796;27;45464;-87
2023/06/30 12:45:44;;;;;;;;;0.33;0.00;;;;;;;;5078025;27;46215;-87
2023/06/30 12:48:09;;;;;;;;;0.00;0.00;;;;;;;;5077978;27;45344;-87
2023/06/30 12:50:35;;;;;;;;;0.75;0.00;;;;;;;;5077971;27;45264;-86
2023/06/30 12:53:01;;;;;;;;;0.00;0.00;;;;;;;;5077512;27;45393;-86
2023/06/30 12:55:28;;;;;;;;;0.00;0.00;;;;;;;;5077737;27;46347;-87
2023/06/30 12:57:55;;;;;;;;;1.00;0.00;;;;;;;;5077780;27;45693;-95
2023/06/30 13:00:21;;;;;;;;;0.00;0.00;;;;;;;;5077874;27;45297;-88
2023/06/30 13:02:46;;;;;;;;;0.00;0.00;;;;;;;;5077691;27;45312;-87
2023/06/30 13:05:11;;;;;;;;;0.00;0.00;;;;;;;;5077434;27;46200;-88
2023/06/30 13:07:38;;;;;;;;;0.00;0.00;;;;;;;;5077226;27;45376;-89
2023/06/30 13:10:05;;;;;;;;;0.00;0.00;;;;;;;;5076515;28;45430;-87
2023/06/30 13:12:31;;;;;;;;;2.00;0.00;;;;;;;;5077705;27;46188;-89
2023/06/30 13:14:56;;;;;;;;;0.00;0.00;;;;;;;;5076454;27;46706;-85
2023/06/30 13:17:22;;;;;;;;;0.00;0.00;;;;;;;;5077512;27;45426;-87
2023/06/30 13:19:47;;;;;;;;;0.00;0.00;;;;;;;;5077664;28;45396;-88
2023/06/30 13:22:13;;;;;;;;;0.00;0.00;;;;;;;;5077175;27;45316;-89
2023/06/30 13:24:39;;;;;;;;;0.00;0.00;;;;;;;;5075901;28;48293;-87
2023/06/30 13:27:04;;;;;;;;;0.00;0.00;;;;;;;;5077343;27;45293;-87
2023/06/30 13:29:31;;;;;;;;;0.00;0.00;;;;;;;;5077285;27;45414;-87
2023/06/30 13:31:57;;;;;;;;;0.50;0.00;;;;;;;;5077289;27;45584;-88
2023/06/30 13:34:22;;;;;;;;;0.00;0.00;;;;;;;;5077180;28;45351;-87
2023/06/30 13:36:52;;;;;;;;;0.00;0.00;;;;;;;;5076640;27;45368;-90
2023/06/30 13:39:17;;;;;;;;;0.00;0.00;;;;;;;;5077473;27;45356;-88
2023/06/30 13:41:43;;;;;;;;;0.00;0.00;;;;;;;;5077183;27;45287;-88
2023/06/30 13:44:09;;;;;;;;;0.00;0.00;;;;;;;;5076826;27;46369;-88
2023/06/30 13:46:36;;;;;;;;;0.00;0.00;;;;;;;;5077102;27;45292;-88
2023/06/30 13:49:02;;;;;;;;;0.00;0.00;;;;;;;;5077207;27;45474;-86
2023/06/30 13:51:27;;;;;;;;;0.00;0.00;;;;;;;;5076791;27;45341;-85
2023/06/30 13:53:52;;;;;;;;;0.00;0.00;;;;;;;;5076679;27;47229;-85
2023/06/30 13:56:20;;;;;;;;;0.00;0.00;;;;;;;;5077002;27;45317;-92
2023/06/30 13:58:45;;;;;;;;;0.00;0.00;;;;;;;;5077187;27;45414;-85
2023/06/30 14:01:10;;;;;;;;;0.67;0.00;;;;;;;;5077118;27;45435;-85
2023/06/30 14:03:39;;;;;;;;;1.00;0.00;;;;;;;;5075733;28;46729;-87
2023/06/30 14:06:04;;;;;;;;;0.00;0.00;;;;;;;;5077690;27;45578;-85
2023/06/30 14:08:30;;;;;;;;;0.00;0.00;;;;;;;;5077438;27;45290;-87
2023/06/30 14:10:57;;;;;;;;;1.00;0.00;;;;;;;;5075846;27;45489;-88
2023/06/30 14:13:22;;;;;;;;;0.00;0.00;;;;;;;;5076434;27;47295;-87
2023/06/30 14:15:50;;;;;;;;;0.00;0.00;;;;;;;;5076767;27;45388;-87
2023/06/30 14:18:15;;;;;;;;;0.50;0.00;;;;;;;;5076644;27;45367;-86
2023/06/30 14:20:40;;;;;;;;;0.00;0.00;;;;;;;;5076479;27;45354;-86
2023/06/30 14:23:05;;;;;;;;;0.00;0.00;;;;;;;;5076278;27;45336;-87
2023/06/30 14:25:31;;;;;;;;;0.00;0.00;;;;;;;;5076234;27;45262;-87
2023/06/30 14:27:56;;;;;;;;;0.00;0.00;;;;;;;;5076359;28;45213;-87
2023/06/30 14:30:27;;;;;;;;;0.00;0.00;;;;;;;;5076515;28;45411;-87
2023/06/30 14:32:56;;;;;;;;;0.00;0.00;;;;;;;;5076112;27;45373;-90
2023/06/30 14:35:24;;;;;;;;;0.00;0.00;;;;;;;;5074731;28;45814;-95
2023/06/30 14:37:49;;;;;;;;;0.00;0.00;;;;;;;;5076410;28;45434;-87